sensor_id;sensor_type;location;lat;lon;timestamp;P1;durP1;ratioP1;P2;durP2;ratioP2
8584;SDS011;7180;52.742;11.420;2023-06-10T00:01:03;11.60;;;10.60;;
8584;SDS011;7180;52.742;11.420;2023-06-10T00:03:29;12.17;;;11.07;;
8584;SDS011;7180;52.742;11.420;2023-06-10T00:05:54;12.17;;;11.23;;
8584;SDS011;7180;52.742;11.420;2023-06-10T00:08:20;11.60;;;10.70;;
8584;SDS011;7180;52.742;11.420;2023-06-10T00:10:45;11.80;;;10.90;;
8584;SDS011;7180;52.742;11.420;2023-06-10T00:13:10;11.40;;;10.50;;
8584;SDS011;7180;52.742;11.420;2023-06-10T00:15:36;11.30;;;10.50;;
8584;SDS011;7180;52.742;11.420;2023-06-10T00:18:02;11.63;;;10.63;;
8584;SDS011;7180;52.742;11.420;2023-06-10T00:20:28;12.07;;;11.07;;
8584;SDS011;7180;52.742;11.420;2023-06-10T00:22:54;12.37;;;11.37;;
8584;SDS011;7180;52.742;11.420;2023-06-10T00:25:19;12.40;;;11.30;;
8584;SDS011;7180;52.742;11.420;2023-06-10T00:27:44;12.50;;;11.47;;
8584;SDS011;7180;52.742;11.420;2023-06-10T00:30:10;12.77;;;11.70;;
8584;SDS011;7180;52.742;11.420;2023-06-10T00:32:36;12.50;;;11.50;;
8584;SDS011;7180;52.742;11.420;2023-06-10T00:35:02;12.23;;;11.17;;
8584;SDS011;7180;52.742;11.420;2023-06-10T00:37:28;12.20;;;11.13;;
8584;SDS011;7180;52.742;11.420;2023-06-10T00:39:55;12.37;;;11.37;;
8584;SDS011;7180;52.742;11.420;2023-06-10T00:42:20;12.77;;;11.87;;
8584;SDS011;7180;52.742;11.420;2023-06-10T00:44:47;13.20;;;12.20;;
8584;SDS011;7180;52.742;11.420;2023-06-10T00:47:13;12.77;;;11.70;;
8584;SDS011;7180;52.742;11.420;2023-06-10T00:49:39;13.80;;;12.07;;
8584;SDS011;7180;52.742;11.420;2023-06-10T00:52:05;12.70;;;11.53;;
8584;SDS011;7180;52.742;11.420;2023-06-10T00:54:32;12.77;;;11.60;;
8584;SDS011;7180;52.742;11.420;2023-06-10T00:57:00;13.07;;;11.83;;
8584;SDS011;7180;52.742;11.420;2023-06-10T00:59:28;12.70;;;11.60;;
8584;SDS011;7180;52.742;11.420;2023-06-10T01:01:54;12.23;;;11.33;;
8584;SDS011;7180;52.742;11.420;2023-06-10T01:04:20;13.00;;;11.80;;
8584;SDS011;7180;52.742;11.420;2023-06-10T01:09:57;12.37;;;11.27;;
8584;SDS011;7180;52.742;11.420;2023-06-10T01:14:59;12.70;;;11.60;;
8584;SDS011;7180;52.742;11.420;2023-06-10T01:17:26;12.53;;;11.53;;
8584;SDS011;7180;52.742;11.420;2023-06-10T01:19:55;12.27;;;11.27;;
8584;SDS011;7180;52.742;11.420;2023-06-10T01:22:27;12.43;;;11.40;;
8584;SDS011;7180;52.742;11.420;2023-06-10T01:25:01;12.20;;;11.10;;
8584;SDS011;7180;52.742;11.420;2023-06-10T01:27:29;12.67;;;11.67;;
8584;SDS011;7180;52.742;11.420;2023-06-10T01:30:16;13.13;;;12.03;;
8584;SDS011;7180;52.742;11.420;2023-06-10T01:32:48;12.40;;;11.30;;
8584;SDS011;7180;52.742;11.420;2023-06-10T01:35:16;11.50;;;10.70;;
8584;SDS011;7180;52.742;11.420;2023-06-10T01:37:43;12.33;;;11.30;;
8584;SDS011;7180;52.742;11.420;2023-06-10T01:40:11;12.53;;;11.57;;
8584;SDS011;7180;52.742;11.420;2023-06-10T01:42:37;13.03;;;11.57;;
8584;SDS011;7180;52.742;11.420;2023-06-10T01:45:02;12.53;;;11.60;;
8584;SDS011;7180;52.742;11.420;2023-06-10T01:47:28;12.27;;;11.33;;
8584;SDS011;7180;52.742;11.420;2023-06-10T01:49:54;12.40;;;11.60;;
8584;SDS011;7180;52.742;11.420;2023-06-10T01:52:19;12.40;;;11.50;;
8584;SDS011;7180;52.742;11.420;2023-06-10T01:54:44;11.83;;;11.00;;
8584;SDS011;7180;52.742;11.420;2023-06-10T01:57:10;12.30;;;11.43;;
8584;SDS011;7180;52.742;11.420;2023-06-10T01:59:35;12.83;;;11.73;;
8584;SDS011;7180;52.742;11.420;2023-06-10T02:02:01;12.53;;;11.73;;
8584;SDS011;7180;52.742;11.420;2023-06-10T02:04:26;12.90;;;11.70;;
8584;SDS011;7180;52.742;11.420;2023-06-10T02:06:52;12.07;;;11.27;;
8584;SDS011;7180;52.742;11.420;2023-06-10T02:09:18;11.80;;;10.90;;
8584;SDS011;7180;52.742;11.420;2023-06-10T02:11:43;12.13;;;11.30;;
8584;SDS011;7180;52.742;11.420;2023-06-10T02:14:09;13.33;;;12.13;;
8584;SDS011;7180;52.742;11.420;2023-06-10T02:16:34;13.20;;;12.00;;
8584;SDS011;7180;52.742;11.420;2023-06-10T02:18:59;12.40;;;11.30;;
8584;SDS011;7180;52.742;11.420;2023-06-10T02:21:25;12.50;;;11.50;;
8584;SDS011;7180;52.742;11.420;2023-06-10T02:23:51;12.40;;;11.40;;
8584;SDS011;7180;52.742;11.420;2023-06-10T02:26:16;13.00;;;11.93;;
8584;SDS011;7180;52.742;11.420;2023-06-10T02:28:44;12.07;;;11.17;;
8584;SDS011;7180;52.742;11.420;2023-06-10T02:31:10;12.43;;;11.50;;
8584;SDS011;7180;52.742;11.420;2023-06-10T02:33:35;12.63;;;11.60;;
8584;SDS011;7180;52.742;11.420;2023-06-10T02:36:05;12.97;;;11.97;;
8584;SDS011;7180;52.742;11.420;2023-06-10T02:38:30;12.60;;;11.60;;
8584;SDS011;7180;52.742;11.420;2023-06-10T02:40:55;12.53;;;11.43;;
8584;SDS011;7180;52.742;11.420;2023-06-10T02:43:21;12.10;;;11.20;;
8584;SDS011;7180;52.742;11.420;2023-06-10T02:45:46;12.90;;;11.90;;
8584;SDS011;7180;52.742;11.420;2023-06-10T02:48:11;12.63;;;11.70;;
8584;SDS011;7180;52.742;11.420;2023-06-10T02:50:36;12.83;;;11.73;;
8584;SDS011;7180;52.742;11.420;2023-06-10T02:53:03;13.00;;;11.93;;
8584;SDS011;7180;52.742;11.420;2023-06-10T02:55:29;13.27;;;12.27;;
8584;SDS011;7180;52.742;11.420;2023-06-10T02:57:55;13.50;;;12.50;;
8584;SDS011;7180;52.742;11.420;2023-06-10T03:00:20;13.80;;;12.50;;
8584;SDS011;7180;52.742;11.420;2023-06-10T03:02:46;14.13;;;12.97;;
8584;SDS011;7180;52.742;11.420;2023-06-10T03:05:12;13.40;;;12.40;;
8584;SDS011;7180;52.742;11.420;2023-06-10T03:07:38;13.27;;;12.07;;
8584;SDS011;7180;52.742;11.420;2023-06-10T03:10:04;13.33;;;12.07;;
8584;SDS011;7180;52.742;11.420;2023-06-10T03:12:30;13.27;;;11.93;;
8584;SDS011;7180;52.742;11.420;2023-06-10T03:14:55;13.53;;;12.20;;
8584;SDS011;7180;52.742;11.420;2023-06-10T03:17:21;13.60;;;12.43;;
8584;SDS011;7180;52.742;11.420;2023-06-10T03:19:46;13.30;;;12.23;;
8584;SDS011;7180;52.742;11.420;2023-06-10T03:22:14;13.20;;;12.10;;
8584;SDS011;7180;52.742;11.420;2023-06-10T03:24:40;13.00;;;11.80;;
8584;SDS011;7180;52.742;11.420;2023-06-10T03:27:06;13.30;;;12.30;;
8584;SDS011;7180;52.742;11.420;2023-06-10T03:29:32;12.77;;;11.77;;
8584;SDS011;7180;52.742;11.420;2023-06-10T03:31:58;12.50;;;11.57;;
8584;SDS011;7180;52.742;11.420;2023-06-10T03:34:23;13.80;;;12.70;;
8584;SDS011;7180;52.742;11.420;2023-06-10T03:36:48;13.40;;;12.27;;
8584;SDS011;7180;52.742;11.420;2023-06-10T03:39:14;12.73;;;11.80;;
8584;SDS011;7180;52.742;11.420;2023-06-10T03:41:39;13.97;;;12.77;;
8584;SDS011;7180;52.742;11.420;2023-06-10T03:44:05;13.97;;;12.77;;
8584;SDS011;7180;52.742;11.420;2023-06-10T03:46:30;12.87;;;11.97;;
8584;SDS011;7180;52.742;11.420;2023-06-10T03:48:55;12.37;;;11.37;;
8584;SDS011;7180;52.742;11.420;2023-06-10T03:51:21;12.90;;;11.90;;
8584;SDS011;7180;52.742;11.420;2023-06-10T03:53:46;13.30;;;12.30;;
8584;SDS011;7180;52.742;11.420;2023-06-10T03:56:11;13.43;;;12.10;;
8584;SDS011;7180;52.742;11.420;2023-06-10T03:58:36;13.20;;;12.10;;
8584;SDS011;7180;52.742;11.420;2023-06-10T04:01:02;12.87;;;11.87;;
8584;SDS011;7180;52.742;11.420;2023-06-10T04:03:27;12.40;;;11.40;;
8584;SDS011;7180;52.742;11.420;2023-06-10T04:05:53;12.33;;;11.43;;
8584;SDS011;7180;52.742;11.420;2023-06-10T04:08:19;12.23;;;11.13;;
8584;SDS011;7180;52.742;11.420;2023-06-10T04:10:45;12.23;;;11.30;;
8584;SDS011;7180;52.742;11.420;2023-06-10T04:13:10;11.10;;;10.20;;
8584;SDS011;7180;52.742;11.420;2023-06-10T04:15:36;12.43;;;11.20;;
8584;SDS011;7180;52.742;11.420;2023-06-10T04:18:01;11.93;;;10.93;;
8584;SDS011;7180;52.742;11.420;2023-06-10T04:20:27;11.43;;;10.53;;
8584;SDS011;7180;52.742;11.420;2023-06-10T04:22:52;11.03;;;10.23;;
8584;SDS011;7180;52.742;11.420;2023-06-10T04:25:17;11.40;;;10.43;;
8584;SDS011;7180;52.742;11.420;2023-06-10T04:27:43;11.40;;;10.40;;
8584;SDS011;7180;52.742;11.420;2023-06-10T04:30:08;11.50;;;10.67;;
8584;SDS011;7180;52.742;11.420;2023-06-10T04:32:34;11.20;;;10.30;;
8584;SDS011;7180;52.742;11.420;2023-06-10T04:35:00;11.73;;;10.53;;
8584;SDS011;7180;52.742;11.420;2023-06-10T04:37:25;11.20;;;10.33;;
8584;SDS011;7180;52.742;11.420;2023-06-10T04:39:50;11.67;;;10.63;;
8584;SDS011;7180;52.742;11.420;2023-06-10T04:42:16;10.53;;;9.80;;
8584;SDS011;7180;52.742;11.420;2023-06-10T04:44:41;10.93;;;10.03;;
8584;SDS011;7180;52.742;11.420;2023-06-10T04:47:06;11.10;;;10.03;;
8584;SDS011;7180;52.742;11.420;2023-06-10T04:49:32;11.60;;;10.60;;
8584;SDS011;7180;52.742;11.420;2023-06-10T04:51:58;11.30;;;10.50;;
8584;SDS011;7180;52.742;11.420;2023-06-10T04:54:24;11.60;;;10.80;;
8584;SDS011;7180;52.742;11.420;2023-06-10T04:56:50;11.20;;;10.37;;
8584;SDS011;7180;52.742;11.420;2023-06-10T04:59:15;12.20;;;11.00;;
8584;SDS011;7180;52.742;11.420;2023-06-10T05:01:40;12.20;;;11.23;;
8584;SDS011;7180;52.742;11.420;2023-06-10T05:04:06;11.10;;;10.27;;
8584;SDS011;7180;52.742;11.420;2023-06-10T05:06:31;11.87;;;10.97;;
8584;SDS011;7180;52.742;11.420;2023-06-10T05:08:56;12.00;;;11.10;;
8584;SDS011;7180;52.742;11.420;2023-06-10T05:11:21;11.47;;;10.67;;
8584;SDS011;7180;52.742;11.420;2023-06-10T05:13:47;11.63;;;10.90;;
8584;SDS011;7180;52.742;11.420;2023-06-10T05:16:12;11.47;;;10.60;;
8584;SDS011;7180;52.742;11.420;2023-06-10T05:18:37;10.67;;;9.97;;
8584;SDS011;7180;52.742;11.420;2023-06-10T05:21:03;11.27;;;10.47;;
8584;SDS011;7180;52.742;11.420;2023-06-10T05:23:28;10.77;;;9.87;;
8584;SDS011;7180;52.742;11.420;2023-06-10T05:25:54;10.83;;;9.93;;
8584;SDS011;7180;52.742;11.420;2023-06-10T05:28:19;11.00;;;10.10;;
8584;SDS011;7180;52.742;11.420;2023-06-10T05:30:45;10.60;;;9.77;;
8584;SDS011;7180;52.742;11.420;2023-06-10T05:33:10;10.67;;;9.67;;
8584;SDS011;7180;52.742;11.420;2023-06-10T05:35:36;10.13;;;9.33;;
8584;SDS011;7180;52.742;11.420;2023-06-10T05:38:01;10.60;;;9.70;;
8584;SDS011;7180;52.742;11.420;2023-06-10T05:40:27;10.33;;;9.63;;
8584;SDS011;7180;52.742;11.420;2023-06-10T05:42:52;10.97;;;10.17;;
8584;SDS011;7180;52.742;11.420;2023-06-10T05:45:17;11.03;;;10.03;;
8584;SDS011;7180;52.742;11.420;2023-06-10T05:47:43;10.50;;;9.70;;
8584;SDS011;7180;52.742;11.420;2023-06-10T05:50:08;10.40;;;9.60;;
8584;SDS011;7180;52.742;11.420;2023-06-10T05:52:37;10.70;;;9.90;;
8584;SDS011;7180;52.742;11.420;2023-06-10T05:55:05;11.17;;;10.13;;
8584;SDS011;7180;52.742;11.420;2023-06-10T05:57:31;11.60;;;10.60;;
8584;SDS011;7180;52.742;11.420;2023-06-10T05:59:57;10.57;;;9.83;;
8584;SDS011;7180;52.742;11.420;2023-06-10T06:02:23;10.80;;;10.10;;
8584;SDS011;7180;52.742;11.420;2023-06-10T06:04:48;10.47;;;9.77;;
8584;SDS011;7180;52.742;11.420;2023-06-10T06:07:13;10.97;;;10.07;;
8584;SDS011;7180;52.742;11.420;2023-06-10T06:09:39;11.20;;;10.30;;
8584;SDS011;7180;52.742;11.420;2023-06-10T06:12:04;10.97;;;10.17;;
8584;SDS011;7180;52.742;11.420;2023-06-10T06:14:31;11.30;;;10.50;;
8584;SDS011;7180;52.742;11.420;2023-06-10T06:16:59;11.00;;;10.20;;
8584;SDS011;7180;52.742;11.420;2023-06-10T06:19:24;10.27;;;9.57;;
8584;SDS011;7180;52.742;11.420;2023-06-10T06:21:50;11.07;;;10.30;;
8584;SDS011;7180;52.742;11.420;2023-06-10T06:24:16;11.00;;;10.20;;
8584;SDS011;7180;52.742;11.420;2023-06-10T06:26:41;11.70;;;10.60;;
8584;SDS011;7180;52.742;11.420;2023-06-10T06:29:07;10.90;;;10.00;;
8584;SDS011;7180;52.742;11.420;2023-06-10T06:31:32;10.57;;;9.77;;
8584;SDS011;7180;52.742;11.420;2023-06-10T06:33:57;11.10;;;10.20;;
8584;SDS011;7180;52.742;11.420;2023-06-10T06:36:22;10.40;;;9.60;;
8584;SDS011;7180;52.742;11.420;2023-06-10T06:38:48;11.00;;;10.10;;
8584;SDS011;7180;52.742;11.420;2023-06-10T06:41:13;11.73;;;10.73;;
8584;SDS011;7180;52.742;11.420;2023-06-10T06:43:38;11.05;;;10.30;;
8584;SDS011;7180;52.742;11.420;2023-06-10T06:46:03;11.00;;;10.30;;
8584;SDS011;7180;52.742;11.420;2023-06-10T06:48:29;11.38;;;10.57;;
8584;SDS011;7180;52.742;11.420;2023-06-10T06:50:54;11.57;;;10.75;;
8584;SDS011;7180;52.742;11.420;2023-06-10T06:53:21;11.85;;;11.00;;
8584;SDS011;7180;52.742;11.420;2023-06-10T06:55:46;12.07;;;11.18;;
8584;SDS011;7180;52.742;11.420;2023-06-10T06:58:12;11.20;;;10.30;;
8584;SDS011;7180;52.742;11.420;2023-06-10T07:00:37;11.35;;;10.55;;
8584;SDS011;7180;52.742;11.420;2023-06-10T07:03:02;11.45;;;10.45;;
8584;SDS011;7180;52.742;11.420;2023-06-10T07:05:28;11.38;;;10.48;;
8584;SDS011;7180;52.742;11.420;2023-06-10T07:07:53;11.48;;;10.57;;
8584;SDS011;7180;52.742;11.420;2023-06-10T07:10:23;11.55;;;10.65;;
8584;SDS011;7180;52.742;11.420;2023-06-10T07:12:49;11.77;;;10.82;;
8584;SDS011;7180;52.742;11.420;2023-06-10T07:15:15;11.40;;;10.50;;
8584;SDS011;7180;52.742;11.420;2023-06-10T07:17:40;11.32;;;10.50;;
8584;SDS011;7180;52.742;11.420;2023-06-10T07:20:06;11.05;;;10.15;;
8584;SDS011;7180;52.742;11.420;2023-06-10T07:22:31;11.23;;;10.43;;
8584;SDS011;7180;52.742;11.420;2023-06-10T07:24:57;12.25;;;11.30;;
8584;SDS011;7180;52.742;11.420;2023-06-10T07:27:23;13.02;;;11.85;;
8584;SDS011;7180;52.742;11.420;2023-06-10T07:29:48;12.85;;;11.95;;
8584;SDS011;7180;52.742;11.420;2023-06-10T07:32:14;12.18;;;11.18;;
8584;SDS011;7180;52.742;11.420;2023-06-10T07:34:39;12.07;;;11.07;;
8584;SDS011;7180;52.742;11.420;2023-06-10T07:37:04;11.52;;;10.73;;
8584;SDS011;7180;52.742;11.420;2023-06-10T07:39:30;12.20;;;11.35;;
8584;SDS011;7180;52.742;11.420;2023-06-10T07:41:55;12.02;;;11.20;;
8584;SDS011;7180;52.742;11.420;2023-06-10T07:44:22;12.13;;;11.23;;
8584;SDS011;7180;52.742;11.420;2023-06-10T07:46:48;12.00;;;11.20;;
8584;SDS011;7180;52.742;11.420;2023-06-10T07:49:13;12.45;;;11.43;;
8584;SDS011;7180;52.742;11.420;2023-06-10T07:51:38;12.73;;;11.73;;
8584;SDS011;7180;52.742;11.420;2023-06-10T07:54:04;12.65;;;11.65;;
8584;SDS011;7180;52.742;11.420;2023-06-10T07:56:29;12.38;;;11.48;;
8584;SDS011;7180;52.742;11.420;2023-06-10T07:58:55;12.55;;;11.50;;
8584;SDS011;7180;52.742;11.420;2023-06-10T08:01:20;12.73;;;11.77;;
8584;SDS011;7180;52.742;11.420;2023-06-10T08:03:45;13.02;;;11.90;;
8584;SDS011;7180;52.742;11.420;2023-06-10T08:06:10;13.13;;;11.90;;
8584;SDS011;7180;52.742;11.420;2023-06-10T08:08:36;11.40;;;10.43;;
8584;SDS011;7180;52.742;11.420;2023-06-10T08:11:06;12.10;;;11.00;;
8584;SDS011;7180;52.742;11.420;2023-06-10T08:13:32;12.30;;;11.30;;
8584;SDS011;7180;52.742;11.420;2023-06-10T08:15:57;12.43;;;11.43;;
8584;SDS011;7180;52.742;11.420;2023-06-10T08:18:22;12.40;;;11.40;;
8584;SDS011;7180;52.742;11.420;2023-06-10T08:20:48;12.50;;;11.50;;
8584;SDS011;7180;52.742;11.420;2023-06-10T08:23:13;11.90;;;11.00;;
8584;SDS011;7180;52.742;11.420;2023-06-10T08:25:39;12.17;;;11.17;;
8584;SDS011;7180;52.742;11.420;2023-06-10T08:28:04;12.20;;;11.30;;
8584;SDS011;7180;52.742;11.420;2023-06-10T08:30:29;12.10;;;11.17;;
8584;SDS011;7180;52.742;11.420;2023-06-10T08:32:55;11.70;;;10.80;;
8584;SDS011;7180;52.742;11.420;2023-06-10T08:35:20;11.70;;;10.90;;
8584;SDS011;7180;52.742;11.420;2023-06-10T08:37:46;12.13;;;11.13;;
8584;SDS011;7180;52.742;11.420;2023-06-10T08:40:11;12.43;;;11.53;;
8584;SDS011;7180;52.742;11.420;2023-06-10T08:42:43;12.33;;;11.33;;
8584;SDS011;7180;52.742;11.420;2023-06-10T08:45:16;12.60;;;11.60;;
8584;SDS011;7180;52.742;11.420;2023-06-10T08:47:45;11.83;;;11.00;;
8584;SDS011;7180;52.742;11.420;2023-06-10T08:50:12;12.70;;;11.67;;
8584;SDS011;7180;52.742;11.420;2023-06-10T08:52:41;12.63;;;11.50;;
8584;SDS011;7180;52.742;11.420;2023-06-10T08:55:13;12.23;;;11.33;;
8584;SDS011;7180;52.742;11.420;2023-06-10T08:57:44;12.33;;;11.37;;
8584;SDS011;7180;52.742;11.420;2023-06-10T09:00:10;13.03;;;11.80;;
8584;SDS011;7180;52.742;11.420;2023-06-10T09:02:38;11.93;;;11.03;;
8584;SDS011;7180;52.742;11.420;2023-06-10T09:05:03;12.20;;;11.27;;
8584;SDS011;7180;52.742;11.420;2023-06-10T09:07:30;13.07;;;12.07;;
8584;SDS011;7180;52.742;11.420;2023-06-10T09:09:56;12.60;;;11.50;;
8584;SDS011;7180;52.742;11.420;2023-06-10T09:12:23;12.87;;;11.60;;
8584;SDS011;7180;52.742;11.420;2023-06-10T09:14:49;12.80;;;11.77;;
8584;SDS011;7180;52.742;11.420;2023-06-10T09:17:16;13.10;;;11.90;;
8584;SDS011;7180;52.742;11.420;2023-06-10T09:19:42;12.87;;;11.97;;
8584;SDS011;7180;52.742;11.420;2023-06-10T09:22:09;13.00;;;12.10;;
8584;SDS011;7180;52.742;11.420;2023-06-10T09:24:34;13.30;;;12.30;;
8584;SDS011;7180;52.742;11.420;2023-06-10T09:27:06;13.13;;;12.13;;
8584;SDS011;7180;52.742;11.420;2023-06-10T09:32:31;12.90;;;11.97;;
8584;SDS011;7180;52.742;11.420;2023-06-10T09:34:56;13.02;;;11.95;;
8584;SDS011;7180;52.742;11.420;2023-06-10T09:37:22;12.90;;;11.93;;
8584;SDS011;7180;52.742;11.420;2023-06-10T09:42:46;12.87;;;11.87;;
8584;SDS011;7180;52.742;11.420;2023-06-10T09:45:19;12.97;;;11.97;;
8584;SDS011;7180;52.742;11.420;2023-06-10T09:47:46;12.57;;;11.67;;
8584;SDS011;7180;52.742;11.420;2023-06-10T09:50:11;13.43;;;12.33;;
8584;SDS011;7180;52.742;11.420;2023-06-10T09:52:37;13.03;;;12.13;;
8584;SDS011;7180;52.742;11.420;2023-06-10T09:55:03;13.35;;;12.18;;
8584;SDS011;7180;52.742;11.420;2023-06-10T09:57:32;13.23;;;12.32;;
8584;SDS011;7180;52.742;11.420;2023-06-10T09:59:58;13.23;;;12.13;;
8584;SDS011;7180;52.742;11.420;2023-06-10T10:02:23;13.13;;;12.23;;
8584;SDS011;7180;52.742;11.420;2023-06-10T10:04:48;13.02;;;11.82;;
8584;SDS011;7180;52.742;11.420;2023-06-10T10:07:14;12.75;;;11.75;;
8584;SDS011;7180;52.742;11.420;2023-06-10T10:09:39;13.13;;;12.05;;
8584;SDS011;7180;52.742;11.420;2023-06-10T10:12:07;12.70;;;11.80;;
8584;SDS011;7180;52.742;11.420;2023-06-10T10:14:35;12.65;;;11.65;;
8584;SDS011;7180;52.742;11.420;2023-06-10T10:17:01;12.90;;;11.77;;
8584;SDS011;7180;52.742;11.420;2023-06-10T10:19:30;12.95;;;11.95;;
8584;SDS011;7180;52.742;11.420;2023-06-10T10:22:07;12.57;;;11.68;;
8584;SDS011;7180;52.742;11.420;2023-06-10T10:24:36;12.55;;;11.70;;
8584;SDS011;7180;52.742;11.420;2023-06-10T10:27:11;12.70;;;11.77;;
8584;SDS011;7180;52.742;11.420;2023-06-10T10:29:42;12.80;;;11.80;;
8584;SDS011;7180;52.742;11.420;2023-06-10T10:32:12;12.57;;;11.77;;
8584;SDS011;7180;52.742;11.420;2023-06-10T10:37:32;12.55;;;11.63;;
8584;SDS011;7180;52.742;11.420;2023-06-10T10:39:58;12.20;;;11.10;;
8584;SDS011;7180;52.742;11.420;2023-06-10T10:42:26;13.00;;;12.10;;
8584;SDS011;7180;52.742;11.420;2023-06-10T10:44:51;12.73;;;11.82;;
8584;SDS011;7180;52.742;11.420;2023-06-10T10:47:18;12.73;;;11.93;;
8584;SDS011;7180;52.742;11.420;2023-06-10T10:49:47;12.63;;;11.80;;
8584;SDS011;7180;52.742;11.420;2023-06-10T10:52:15;13.27;;;12.27;;
8584;SDS011;7180;52.742;11.420;2023-06-10T10:54:44;13.10;;;12.02;;
8584;SDS011;7180;52.742;11.420;2023-06-10T10:57:18;13.20;;;12.15;;
8584;SDS011;7180;52.742;11.420;2023-06-10T10:59:51;12.93;;;12.05;;
8584;SDS011;7180;52.742;11.420;2023-06-10T11:02:35;12.68;;;11.85;;
8584;SDS011;7180;52.742;11.420;2023-06-10T11:05:09;13.00;;;11.98;;
8584;SDS011;7180;52.742;11.420;2023-06-10T11:07:35;13.40;;;12.43;;
8584;SDS011;7180;52.742;11.420;2023-06-10T11:10:13;13.35;;;12.50;;
8584;SDS011;7180;52.742;11.420;2023-06-10T11:15:13;13.23;;;12.20;;
8584;SDS011;7180;52.742;11.420;2023-06-10T11:20:45;13.18;;;12.18;;
8584;SDS011;7180;52.742;11.420;2023-06-10T11:23:26;12.90;;;12.00;;
8584;SDS011;7180;52.742;11.420;2023-06-10T11:28:40;12.77;;;11.85;;
8584;SDS011;7180;52.742;11.420;2023-06-10T11:33:56;13.30;;;12.10;;
8584;SDS011;7180;52.742;11.420;2023-06-10T11:36:23;12.88;;;11.88;;
8584;SDS011;7180;52.742;11.420;2023-06-10T11:38:56;12.80;;;11.90;;
8584;SDS011;7180;52.742;11.420;2023-06-10T11:41:24;13.10;;;12.30;;
8584;SDS011;7180;52.742;11.420;2023-06-10T11:43:51;13.15;;;12.20;;
8584;SDS011;7180;52.742;11.420;2023-06-10T11:46:17;13.38;;;12.25;;
8584;SDS011;7180;52.742;11.420;2023-06-10T11:48:48;13.18;;;12.20;;
8584;SDS011;7180;52.742;11.420;2023-06-10T11:51:17;13.60;;;12.60;;
8584;SDS011;7180;52.742;11.420;2023-06-10T11:53:52;13.45;;;12.52;;
8584;SDS011;7180;52.742;11.420;2023-06-10T11:56:22;13.20;;;12.30;;
8584;SDS011;7180;52.742;11.420;2023-06-10T12:01:23;13.35;;;12.38;;
8584;SDS011;7180;52.742;11.420;2023-06-10T12:04:03;13.48;;;12.57;;
8584;SDS011;7180;52.742;11.420;2023-06-10T12:06:40;13.63;;;12.35;;
8584;SDS011;7180;52.742;11.420;2023-06-10T12:12:05;13.90;;;12.88;;
8584;SDS011;7180;52.742;11.420;2023-06-10T12:17:48;13.40;;;12.50;;
8584;SDS011;7180;52.742;11.420;2023-06-10T12:20:26;13.30;;;12.38;;
8584;SDS011;7180;52.742;11.420;2023-06-10T12:22:53;13.50;;;12.50;;
8584;SDS011;7180;52.742;11.420;2023-06-10T12:25:23;13.23;;;12.43;;
8584;SDS011;7180;52.742;11.420;2023-06-10T12:27:53;13.77;;;12.88;;
8584;SDS011;7180;52.742;11.420;2023-06-10T12:30:21;13.73;;;12.73;;
8584;SDS011;7180;52.742;11.420;2023-06-10T12:32:49;13.48;;;12.68;;
8584;SDS011;7180;52.742;11.420;2023-06-10T12:35:22;13.15;;;12.35;;
8584;SDS011;7180;52.742;11.420;2023-06-10T12:40:25;13.00;;;12.20;;
8584;SDS011;7180;52.742;11.420;2023-06-10T12:42:56;13.10;;;12.30;;
8584;SDS011;7180;52.742;11.420;2023-06-10T12:45:28;13.40;;;12.50;;
8584;SDS011;7180;52.742;11.420;2023-06-10T12:48:06;13.70;;;12.80;;
8584;SDS011;7180;52.742;11.420;2023-06-10T12:50:35;12.80;;;12.00;;
8584;SDS011;7180;52.742;11.420;2023-06-10T12:53:04;13.52;;;12.40;;
8584;SDS011;7180;52.742;11.420;2023-06-10T12:55:30;13.90;;;13.00;;
8584;SDS011;7180;52.742;11.420;2023-06-10T12:57:57;14.18;;;13.07;;
8584;SDS011;7180;52.742;11.420;2023-06-10T13:00:23;13.35;;;12.55;;
8584;SDS011;7180;52.742;11.420;2023-06-10T13:02:51;13.27;;;12.40;;
8584;SDS011;7180;52.742;11.420;2023-06-10T13:05:18;13.77;;;12.68;;
8584;SDS011;7180;52.742;11.420;2023-06-10T13:07:45;13.20;;;12.23;;
8584;SDS011;7180;52.742;11.420;2023-06-10T13:10:10;12.95;;;12.15;;
8584;SDS011;7180;52.742;11.420;2023-06-10T13:12:35;12.95;;;12.15;;
8584;SDS011;7180;52.742;11.420;2023-06-10T13:15:01;13.07;;;12.07;;
8584;SDS011;7180;52.742;11.420;2023-06-10T13:17:27;13.18;;;12.27;;
8584;SDS011;7180;52.742;11.420;2023-06-10T13:19:53;12.52;;;11.63;;
8584;SDS011;7180;52.742;11.420;2023-06-10T13:22:18;12.55;;;11.73;;
8584;SDS011;7180;52.742;11.420;2023-06-10T13:24:45;13.35;;;12.30;;
8584;SDS011;7180;52.742;11.420;2023-06-10T13:27:10;12.93;;;11.93;;
8584;SDS011;7180;52.742;11.420;2023-06-10T13:29:36;12.65;;;11.85;;
8584;SDS011;7180;52.742;11.420;2023-06-10T13:32:01;12.68;;;11.85;;
8584;SDS011;7180;52.742;11.420;2023-06-10T13:34:26;12.45;;;11.65;;
8584;SDS011;7180;52.742;11.420;2023-06-10T13:36:53;12.20;;;11.48;;
8584;SDS011;7180;52.742;11.420;2023-06-10T13:39:18;12.35;;;11.60;;
8584;SDS011;7180;52.742;11.420;2023-06-10T13:41:43;11.73;;;11.02;;
8584;SDS011;7180;52.742;11.420;2023-06-10T13:44:09;12.52;;;11.65;;
8584;SDS011;7180;52.742;11.420;2023-06-10T13:46:34;12.82;;;11.93;;
8584;SDS011;7180;52.742;11.420;2023-06-10T13:48:59;12.90;;;12.10;;
8584;SDS011;7180;52.742;11.420;2023-06-10T13:51:24;12.25;;;11.35;;
8584;SDS011;7180;52.742;11.420;2023-06-10T13:53:50;12.77;;;11.70;;
8584;SDS011;7180;52.742;11.420;2023-06-10T13:56:16;12.98;;;11.88;;
8584;SDS011;7180;52.742;11.420;2023-06-10T13:58:42;13.32;;;12.30;;
8584;SDS011;7180;52.742;11.420;2023-06-10T14:01:08;12.40;;;11.70;;
8584;SDS011;7180;52.742;11.420;2023-06-10T14:03:33;13.10;;;12.20;;
8584;SDS011;7180;52.742;11.420;2023-06-10T14:05:58;13.00;;;12.00;;
8584;SDS011;7180;52.742;11.420;2023-06-10T14:08:24;12.88;;;12.02;;
8584;SDS011;7180;52.742;11.420;2023-06-10T14:10:50;13.50;;;12.60;;
8584;SDS011;7180;52.742;11.420;2023-06-10T14:13:16;13.18;;;12.20;;
8584;SDS011;7180;52.742;11.420;2023-06-10T14:15:42;12.95;;;11.90;;
8584;SDS011;7180;52.742;11.420;2023-06-10T14:18:07;13.02;;;12.23;;
8584;SDS011;7180;52.742;11.420;2023-06-10T14:20:32;13.32;;;12.15;;
8584;SDS011;7180;52.742;11.420;2023-06-10T14:22:58;13.60;;;12.57;;
8584;SDS011;7180;52.742;11.420;2023-06-10T14:25:24;13.50;;;12.43;;
8584;SDS011;7180;52.742;11.420;2023-06-10T14:27:49;12.98;;;12.18;;
8584;SDS011;7180;52.742;11.420;2023-06-10T14:30:15;12.85;;;12.05;;
8584;SDS011;7180;52.742;11.420;2023-06-10T14:32:41;13.30;;;12.40;;
8584;SDS011;7180;52.742;11.420;2023-06-10T14:35:06;12.73;;;11.93;;
8584;SDS011;7180;52.742;11.420;2023-06-10T14:37:32;13.25;;;12.15;;
8584;SDS011;7180;52.742;11.420;2023-06-10T14:39:57;12.35;;;11.55;;
8584;SDS011;7180;52.742;11.420;2023-06-10T14:42:23;12.88;;;11.98;;
8584;SDS011;7180;52.742;11.420;2023-06-10T14:44:48;12.43;;;11.55;;
8584;SDS011;7180;52.742;11.420;2023-06-10T14:47:14;12.65;;;11.73;;
8584;SDS011;7180;52.742;11.420;2023-06-10T14:49:40;12.80;;;12.00;;
8584;SDS011;7180;52.742;11.420;2023-06-10T14:52:07;13.27;;;12.10;;
8584;SDS011;7180;52.742;11.420;2023-06-10T14:54:33;12.27;;;11.38;;
8584;SDS011;7180;52.742;11.420;2023-06-10T14:56:58;13.15;;;12.00;;
8584;SDS011;7180;52.742;11.420;2023-06-10T14:59:23;12.88;;;11.80;;
8584;SDS011;7180;52.742;11.420;2023-06-10T15:01:49;12.15;;;11.30;;
8584;SDS011;7180;52.742;11.420;2023-06-10T15:04:14;12.15;;;11.25;;
8584;SDS011;7180;52.742;11.420;2023-06-10T15:06:39;12.20;;;11.45;;
8584;SDS011;7180;52.742;11.420;2023-06-10T15:09:06;12.65;;;11.93;;